sensor_id;sensor_type;location;lat;lon;timestamp;pressure;altitude;pressure_sealevel;temperature;humidity
77517;BME280;68414;53.946;27.634;2023-05-31T00:00:16;99341.312500;;;12.450000;55.374023
77517;BME280;68414;53.946;27.634;2023-05-31T00:01:15;99337.906250;;;12.360000;55.581055
77517;BME280;68414;53.946;27.634;2023-05-31T00:02:16;99340.015625;;;12.270000;56.071289
77517;BME280;68414;53.946;27.634;2023-05-31T00:03:15;99328.234375;;;12.140000;56.318359
77517;BME280;68414;53.946;27.634;2023-05-31T00:04:15;99332.054688;;;12.090000;56.344727
77517;BME280;68414;53.946;27.634;2023-05-31T00:05:15;99338.632812;;;12.050000;56.589844
77517;BME280;68414;53.946;27.634;2023-05-31T00:06:15;99343.703125;;;12.030000;56.630859
77517;BME280;68414;53.946;27.634;2023-05-31T00:07:15;99336.390625;;;11.950000;56.785156
77517;BME280;68414;53.946;27.634;2023-05-31T00:08:15;99341.007812;;;11.910000;56.833008
77517;BME280;68414;53.946;27.634;2023-05-31T00:09:15;99333.773438;;;11.860000;57.067383
77517;BME280;68414;53.946;27.634;2023-05-31T00:10:15;99332.062500;;;11.820000;57.431641
77517;BME280;68414;53.946;27.634;2023-05-31T00:11:15;99334.375000;;;11.800000;57.560547
77517;BME280;68414;53.946;27.634;2023-05-31T00:12:15;99336.562500;;;11.740000;57.651367
77517;BME280;68414;53.946;27.634;2023-05-31T00:13:15;99336.015625;;;11.690000;57.797852
77517;BME280;68414;53.946;27.634;2023-05-31T00:14:15;99334.265625;;;11.640000;57.911133
77517;BME280;68414;53.946;27.634;2023-05-31T00:15:15;99337.718750;;;11.610000;58.037109
77517;BME280;68414;53.946;27.634;2023-05-31T00:16:15;99336.000000;;;11.570000;58.107422
77517;BME280;68414;53.946;27.634;2023-05-31T00:17:15;99340.390625;;;11.580000;57.989258
77517;BME280;68414;53.946;27.634;2023-05-31T00:18:15;99336.453125;;;11.590000;57.924805
77517;BME280;68414;53.946;27.634;2023-05-31T00:19:15;99337.031250;;;11.640000;57.998047
77517;BME280;68414;53.946;27.634;2023-05-31T00:20:15;99333.921875;;;11.780000;57.437500
77517;BME280;68414;53.946;27.634;2023-05-31T00:21:15;99346.320312;;;11.840000;57.139648
77517;BME280;68414;53.946;27.634;2023-05-31T00:22:15;99343.320312;;;11.890000;57.496094
77517;BME280;68414;53.946;27.634;2023-05-31T00:23:16;99342.843750;;;11.870000;57.482422
77517;BME280;68414;53.946;27.634;2023-05-31T00:24:16;99343.320312;;;11.890000;57.506836
77517;BME280;68414;53.946;27.634;2023-05-31T00:25:15;99343.648438;;;11.870000;57.744141
77517;BME280;68414;53.946;27.634;2023-05-31T00:26:15;99348.570312;;;11.940000;57.382812
77517;BME280;68414;53.946;27.634;2023-05-31T00:27:15;99346.984375;;;11.930000;57.599609
77517;BME280;68414;53.946;27.634;2023-05-31T00:28:15;99346.625000;;;11.940000;57.416016
77517;BME280;68414;53.946;27.634;2023-05-31T00:29:15;99348.210938;;;11.950000;57.483398
77517;BME280;68414;53.946;27.634;2023-05-31T00:30:15;99349.593750;;;12.010000;56.989258
77517;BME280;68414;53.946;27.634;2023-05-31T00:31:15;99344.250000;;;12.080000;56.496094
77517;BME280;68414;53.946;27.634;2023-05-31T00:32:15;99342.406250;;;12.120000;56.206055
77517;BME280;68414;53.946;27.634;2023-05-31T00:33:15;99346.882812;;;12.170000;56.135742
77517;BME280;68414;53.946;27.634;2023-05-31T00:34:15;99352.406250;;;12.170000;55.840820
77517;BME280;68414;53.946;27.634;2023-05-31T00:35:15;99352.859375;;;12.190000;55.898438
77517;BME280;68414;53.946;27.634;2023-05-31T00:36:15;99344.117188;;;12.170000;56.026367
77517;BME280;68414;53.946;27.634;2023-05-31T00:37:15;99344.562500;;;12.190000;55.843750
77517;BME280;68414;53.946;27.634;2023-05-31T00:38:15;99341.437500;;;12.210000;55.573242
77517;BME280;68414;53.946;27.634;2023-05-31T00:39:15;99345.343750;;;12.190000;55.495117
77517;BME280;68414;53.946;27.634;2023-05-31T00:40:15;99344.562500;;;12.190000;55.679688
77517;BME280;68414;53.946;27.634;2023-05-31T00:41:15;99348.390625;;;12.140000;55.629883
77517;BME280;68414;53.946;27.634;2023-05-31T00:42:16;99288.937500;;;11.770000;55.484375
77517;BME280;68414;53.946;27.634;2023-05-31T00:43:15;99329.359375;;;11.970000;55.597656
77517;BME280;68414;53.946;27.634;2023-05-31T00:44:15;99348.992188;;;12.080000;55.970703
77517;BME280;68414;53.946;27.634;2023-05-31T00:45:15;99347.726562;;;12.050000;56.263672
77517;BME280;68414;53.946;27.634;2023-05-31T00:46:21;99342.812500;;;11.990000;56.408203
77517;BME280;68414;53.946;27.634;2023-05-31T00:47:15;99344.765625;;;11.980000;56.483398
77517;BME280;68414;53.946;27.634;2023-05-31T00:48:15;99350.070312;;;11.910000;56.484375
77517;BME280;68414;53.946;27.634;2023-05-31T00:49:15;99346.984375;;;11.930000;56.377930
77517;BME280;68414;53.946;27.634;2023-05-31T00:50:15;99345.000000;;;11.930000;56.530273
77517;BME280;68414;53.946;27.634;2023-05-31T00:51:15;99348.484375;;;11.900000;56.691406
77517;BME280;68414;53.946;27.634;2023-05-31T00:52:15;99350.796875;;;11.880000;56.895508
77517;BME280;68414;53.946;27.634;2023-05-31T00:53:15;99352.742188;;;11.880000;56.676758
77517;BME280;68414;53.946;27.634;2023-05-31T00:54:15;99347.007812;;;11.810000;57.300781
77517;BME280;68414;53.946;27.634;2023-05-31T00:55:15;99347.453125;;;11.830000;57.008789
77517;BME280;68414;53.946;27.634;2023-05-31T00:56:15;99348.953125;;;11.800000;57.245117
77517;BME280;68414;53.946;27.634;2023-05-31T00:57:15;99347.007812;;;11.810000;57.180664
77517;BME280;68414;53.946;27.634;2023-05-31T00:58:15;99347.453125;;;11.830000;57.162109
77517;BME280;68414;53.946;27.634;2023-05-31T00:59:15;99350.218750;;;11.830000;56.954102
77517;BME280;68414;53.946;27.634;2023-05-31T01:00:15;99348.359375;;;11.870000;57.057617
77517;BME280;68414;53.946;27.634;2023-05-31T01:01:15;99343.648438;;;11.870000;56.861328
77517;BME280;68414;53.946;27.634;2023-05-31T01:02:15;99350.671875;;;11.850000;56.989258
77517;BME280;68414;53.946;27.634;2023-05-31T01:03:15;99342.984375;;;11.780000;56.992188
77517;BME280;68414;53.946;27.634;2023-05-31T01:04:15;99347.367188;;;11.790000;57.024414
77517;BME280;68414;53.946;27.634;2023-05-31T01:05:15;99348.054688;;;11.760000;57.033203
77517;BME280;68414;53.946;27.634;2023-05-31T01:06:15;99351.984375;;;11.750000;56.987305
77517;BME280;68414;53.946;27.634;2023-05-31T01:07:15;99350.718750;;;11.730000;57.268555
77517;BME280;68414;53.946;27.634;2023-05-31T01:08:15;99268.070312;;;11.120000;57.581055
77517;BME280;68414;53.946;27.634;2023-05-31T01:09:15;99351.640625;;;11.650000;57.649414
77517;BME280;68414;53.946;27.634;2023-05-31T01:10:15;99355.906250;;;11.620000;57.821289
77517;BME280;68414;53.946;27.634;2023-05-31T01:19:20;99364.453125;;;11.450000;58.135742
77517;BME280;68414;53.946;27.634;2023-05-31T01:20:16;99360.070312;;;11.440000;58.417969
77517;BME280;68414;53.946;27.634;2023-05-31T01:21:16;99361.687500;;;11.450000;58.418945
77517;BME280;68414;53.946;27.634;2023-05-31T01:24:22;99365.718750;;;11.480000;58.084961
77517;BME280;68414;53.946;27.634;2023-05-31T01:27:15;99363.085938;;;11.390000;58.607422
77517;BME280;68414;53.946;27.634;2023-05-31T01:28:15;99371.359375;;;11.390000;58.411133
77517;BME280;68414;53.946;27.634;2023-05-31T01:30:16;99368.500000;;;11.230000;58.978516
77517;BME280;68414;53.946;27.634;2023-05-31T01:31:16;99376.523438;;;11.280000;59.016602
77517;BME280;68414;53.946;27.634;2023-05-31T01:32:15;99369.867188;;;11.290000;59.052734
77517;BME280;68414;53.946;27.634;2023-05-31T01:33:15;99380.546875;;;11.310000;59.020508
77517;BME280;68414;53.946;27.634;2023-05-31T01:34:15;99377.234375;;;11.250000;59.154297
77517;BME280;68414;53.946;27.634;2023-05-31T01:35:16;99367.234375;;;11.210000;59.268555
77517;BME280;68414;53.946;27.634;2023-05-31T01:36:15;99374.921875;;;11.150000;59.620117
77517;BME280;68414;53.946;27.634;2023-05-31T01:37:15;99382.734375;;;11.130000;59.584961
77517;BME280;68414;53.946;27.634;2023-05-31T01:38:15;99374.359375;;;11.100000;59.840820
77517;BME280;68414;53.946;27.634;2023-05-31T01:39:15;99368.164062;;;11.130000;59.627930
77517;BME280;68414;53.946;27.634;2023-05-31T01:40:15;99369.757812;;;11.140000;59.704102
77517;BME280;68414;53.946;27.634;2023-05-31T01:41:15;99365.734375;;;11.110000;59.614258
77517;BME280;68414;53.946;27.634;2023-05-31T01:42:15;99372.734375;;;11.090000;60.045898
77517;BME280;68414;53.946;27.634;2023-05-31T01:43:16;99371.140625;;;11.080000;60.055664
77517;BME280;68414;53.946;27.634;2023-05-31T01:44:15;99373.906250;;;11.080000;59.979492
77517;BME280;68414;53.946;27.634;2023-05-31T01:45:15;99373.664062;;;11.010000;60.231445
77517;BME280;68414;53.946;27.634;2023-05-31T01:46:16;99372.390625;;;10.980000;60.585938
77517;BME280;68414;53.946;27.634;2023-05-31T01:47:15;99374.015625;;;10.990000;60.239258
77517;BME280;68414;53.946;27.634;2023-05-31T01:48:15;99377.234375;;;11.010000;60.187500
77517;BME280;68414;53.946;27.634;2023-05-31T01:49:15;99376.062500;;;11.020000;60.243164
77517;BME280;68414;53.946;27.634;2023-05-31T01:50:15;99370.796875;;;10.970000;60.432617
77517;BME280;68414;53.946;27.634;2023-05-31T01:51:15;99374.828125;;;11.000000;60.217773
77517;BME280;68414;53.946;27.634;2023-05-31T01:52:15;99381.257812;;;11.040000;60.311523
77517;BME280;68414;53.946;27.634;2023-05-31T01:53:15;99374.828125;;;11.000000;60.403320
77517;BME280;68414;53.946;27.634;2023-05-31T01:54:15;99377.804688;;;10.950000;60.515625
77517;BME280;68414;53.946;27.634;2023-05-31T01:55:15;99381.015625;;;10.970000;60.574219
77517;BME280;68414;53.946;27.634;2023-05-31T01:56:15;99372.750000;;;10.970000;60.574219
77517;BME280;68414;53.946;27.634;2023-05-31T01:57:15;99381.828125;;;10.970000;60.519531
77517;BME280;68414;53.946;27.634;2023-05-31T01:58:15;99384.593750;;;10.970000;60.421875
77517;BME280;68414;53.946;27.634;2023-05-31T01:59:15;99382.187500;;;10.960000;60.680664
77517;BME280;68414;53.946;27.634;2023-05-31T02:00:15;99381.125000;;;10.880000;60.952148
77517;BME280;68414;53.946;27.634;2023-05-31T02:01:15;99383.890625;;;10.880000;60.756836
77517;BME280;68414;53.946;27.634;2023-05-31T02:02:15;99385.968750;;;10.910000;60.989258
77517;BME280;68414;53.946;27.634;2023-05-31T02:03:18;99388.828125;;;10.950000;60.852539
77517;BME280;68414;53.946;27.634;2023-05-31T02:05:15;99388.726562;;;10.910000;60.554688
77517;BME280;68414;53.946;27.634;2023-05-31T02:06:15;99385.968750;;;10.910000;60.815430
77517;BME280;68414;53.946;27.634;2023-05-31T02:07:15;99384.937500;;;10.960000;60.647461
77517;BME280;68414;53.946;27.634;2023-05-31T02:08:15;99383.101562;;;11.000000;60.293945
77517;BME280;68414;53.946;27.634;2023-05-31T02:09:15;99385.500000;;;11.010000;60.199219
77517;BME280;68414;53.946;27.634;2023-05-31T02:10:15;99382.968750;;;10.960000;60.268555
77517;BME280;68414;53.946;27.634;2023-05-31T02:11:15;99384.937500;;;10.960000;60.365234
77517;BME280;68414;53.946;27.634;2023-05-31T02:12:15;99392.046875;;;10.970000;60.367188
77517;BME280;68414;53.946;27.634;2023-05-31T02:13:15;99385.718750;;;10.960000;60.420898
77517;BME280;68414;53.946;27.634;2023-05-31T02:14:15;99387.562500;;;10.920000;60.285156
77517;BME280;68414;53.946;27.634;2023-05-31T02:15:15;99393.187500;;;10.840000;60.674805
77517;BME280;68414;53.946;27.634;2023-05-31T02:16:15;99392.265625;;;10.800000;60.755859
77517;BME280;68414;53.946;27.634;2023-05-31T02:17:15;99393.390625;;;10.660000;61.150391
77517;BME280;68414;53.946;27.634;2023-05-31T02:18:15;99395.890625;;;10.590000;61.422852
77517;BME280;68414;53.946;27.634;2023-05-31T02:19:15;99399.710938;;;10.670000;61.487305
77517;BME280;68414;53.946;27.634;2023-05-31T02:20:15;99397.203125;;;10.740000;61.161133
77517;BME280;68414;53.946;27.634;2023-05-31T02:21:15;99399.156250;;;10.740000;60.933594
77517;BME280;68414;53.946;27.634;2023-05-31T02:22:15;99404.421875;;;10.790000;60.570312
77517;BME280;68414;53.946;27.634;2023-05-31T02:23:15;99406.390625;;;10.780000;60.526367
77517;BME280;68414;53.946;27.634;2023-05-31T02:24:15;99406.046875;;;10.800000;60.789062
77517;BME280;68414;53.946;27.634;2023-05-31T02:25:15;99407.421875;;;10.740000;60.813477
77517;BME280;68414;53.946;27.634;2023-05-31T02:26:15;99415.437500;;;10.660000;60.715820
77517;BME280;68414;53.946;27.634;2023-05-31T02:27:15;99410.828125;;;10.580000;60.715820
77517;BME280;68414;53.946;27.634;2023-05-31T02:28:15;99415.421875;;;10.540000;60.927734
77517;BME280;68414;53.946;27.634;2023-05-31T02:29:15;99410.000000;;;10.460000;61.066406
77517;BME280;68414;53.946;27.634;2023-05-31T02:30:15;99412.750000;;;10.460000;61.077148
77517;BME280;68414;53.946;27.634;2023-05-31T02:31:15;99415.515625;;;10.460000;61.077148
77517;BME280;68414;53.946;27.634;2023-05-31T02:32:15;99411.218750;;;10.360000;61.270508
77517;BME280;68414;53.946;27.634;2023-05-31T02:33:15;99414.171875;;;10.310000;61.373047
77517;BME280;68414;53.946;27.634;2023-05-31T02:34:15;99411.109375;;;10.330000;61.364258
77517;BME280;68414;53.946;27.634;2023-05-31T02:35:15;99412.343750;;;10.350000;61.193359
77517;BME280;68414;53.946;27.634;2023-05-31T02:36:15;99418.468750;;;10.410000;60.712891
77517;BME280;68414;53.946;27.634;2023-05-31T02:37:15;99417.304688;;;10.420000;60.659180
77517;BME280;68414;53.946;27.634;2023-05-31T02:38:15;99419.390625;;;10.450000;60.654297
77517;BME280;68414;53.946;27.634;2023-05-31T02:39:15;99420.203125;;;10.450000;60.480469
77517;BME280;68414;53.946;27.634;2023-05-31T02:40:15;99422.500000;;;10.430000;60.509766
77517;BME280;68414;53.946;27.634;2023-05-31T02:41:15;99422.609375;;;10.470000;60.244141
77517;BME280;68414;53.946;27.634;2023-05-31T02:42:15;99426.125000;;;10.350000;60.584961
77517;BME280;68414;53.946;27.634;2023-05-31T02:43:15;99422.585938;;;10.350000;60.726562
77517;BME280;68414;53.946;27.634;2023-05-31T02:44:15;99429.835938;;;10.390000;60.546875
77517;BME280;68414;53.946;27.634;2023-05-31T02:45:15;99420.875000;;;10.420000;60.443359
77517;BME280;68414;53.946;27.634;2023-05-31T02:46:15;99421.687500;;;10.430000;60.346680
77517;BME280;68414;53.946;27.634;2023-05-31T02:47:15;99420.296875;;;10.370000;60.500977
77517;BME280;68414;53.946;27.634;2023-05-31T02:48:15;99420.500000;;;10.320000;60.601562
77517;BME280;68414;53.946;27.634;2023-05-31T02:49:15;99422.437500;;;10.310000;60.764648
77517;BME280;68414;53.946;27.634;2023-05-31T02:50:15;99423.593750;;;10.300000;60.838867
77517;BME280;68414;53.946;27.634;2023-05-31T02:51:15;99423.914062;;;10.290000;60.914062
77517;BME280;68414;53.946;27.634;2023-05-31T02:52:15;99424.140625;;;10.240000;61.296875
77517;BME280;68414;53.946;27.634;2023-05-31T02:53:15;99433.218750;;;10.240000;61.146484
77517;BME280;68414;53.946;27.634;2023-05-31T02:54:15;99433.687500;;;10.260000;61.170898
77517;BME280;68414;53.946;27.634;2023-05-31T02:55:15;99424.812500;;;10.210000;61.325195
77517;BME280;68414;53.946;27.634;2023-05-31T02:56:15;99425.625000;;;10.210000;61.445312
77517;BME280;68414;53.946;27.634;2023-05-31T02:57:15;99426.351562;;;10.300000;61.610352
77517;BME280;68414;53.946;27.634;2023-05-31T02:58:15;99429.218750;;;10.340000;61.636719
77517;BME280;68414;53.946;27.634;2023-05-31T02:59:15;99435.656250;;;10.380000;61.186523
77517;BME280;68414;53.946;27.634;2023-05-31T03:00:16;99433.718750;;;10.380000;61.166016
77517;BME280;68414;53.946;27.634;2023-05-31T03:01:15;99436.210938;;;10.310000;61.350586
77517;BME280;68414;53.946;27.634;2023-05-31T03:02:15;99433.140625;;;10.330000;61.353516
77517;BME280;68414;53.946;27.634;2023-05-31T03:03:15;99432.593750;;;10.390000;61.198242
77517;BME280;68414;53.946;27.634;2023-05-31T03:04:15;99434.445312;;;10.470000;60.711914
77517;BME280;68414;53.946;27.634;2023-05-31T03:05:15;99439.953125;;;10.470000;60.766602
77517;BME280;68414;53.946;27.634;2023-05-31T03:06:15;99441.437500;;;10.450000;60.697266
77517;BME280;68414;53.946;27.634;2023-05-31T03:07:16;99438.015625;;;10.480000;60.495117
77517;BME280;68414;53.946;27.634;2023-05-31T03:08:15;99429.195312;;;10.540000;60.384766
77517;BME280;68414;53.946;27.634;2023-05-31T03:09:15;99445.953125;;;10.610000;59.894531
77517;BME280;68414;53.946;27.634;2023-05-31T03:10:15;99440.125000;;;10.630000;59.863281
77517;BME280;68414;53.946;27.634;2023-05-31T03:11:15;99438.500000;;;10.620000;59.906250
77517;BME280;68414;53.946;27.634;2023-05-31T03:12:15;99441.375000;;;10.650000;59.856445
77517;BME280;68414;53.946;27.634;2023-05-31T03:13:17;99437.828125;;;10.650000;59.920898
77517;BME280;68414;53.946;27.634;2023-05-31T03:14:15;99441.164062;;;10.710000;59.982422
77517;BME280;68414;53.946;27.634;2023-05-31T03:15:16;99444.984375;;;10.780000;59.820312
77517;BME280;68414;53.946;27.634;2023-05-31T03:16:15;99444.328125;;;10.930000;59.512695
77517;BME280;68414;53.946;27.634;2023-05-31T03:17:15;99445.703125;;;10.990000;59.293945
77517;BME280;68414;53.946;27.634;2023-05-31T03:18:15;99448.812500;;;10.980000;58.910156
77517;BME280;68414;53.946;27.634;2023-05-31T03:19:15;99444.328125;;;11.050000;58.604492
77517;BME280;68414;53.946;27.634;2023-05-31T03:20:15;99443.656250;;;11.080000;58.697266
77517;BME280;68414;53.946;27.634;2023-05-31T03:21:16;99452.390625;;;11.100000;59.210938
77517;BME280;68414;53.946;27.634;2023-05-31T03:22:15;99445.953125;;;11.060000;58.585938
77517;BME280;68414;53.946;27.634;2023-05-31T03:23:15;99455.250000;;;11.140000;58.496094
77517;BME280;68414;53.946;27.634;2023-05-31T03:24:15;99449.984375;;;11.210000;58.005859
77517;BME280;68414;53.946;27.634;2023-05-31T03:25:15;99456.632812;;;11.200000;57.993164
77517;BME280;68414;53.946;27.634;2023-05-31T03:26:15;99453.656250;;;11.250000;57.880859
77517;BME280;68414;53.946;27.634;2023-05-31T03:27:17;99446.195312;;;11.250000;57.859375
77517;BME280;68414;53.946;27.634;2023-05-31T03:28:15;99452.984375;;;11.280000;57.763672
77517;BME280;68414;53.946;27.634;2023-05-31T03:29:17;99451.359375;;;11.270000;57.970703
77517;BME280;68414;53.946;27.634;2023-05-31T03:30:15;99450.687500;;;11.300000;57.658203
77517;BME280;68414;53.946;27.634;2023-05-31T03:31:15;99455.171875;;;11.340000;57.403320
77517;BME280;68414;53.946;27.634;2023-05-31T03:32:15;99455.156250;;;11.470000;57.385742
77517;BME280;68414;53.946;27.634;2023-05-31T03:33:17;99456.859375;;;11.630000;56.469727
77517;BME280;68414;53.946;27.634;2023-05-31T03:34:15;99452.968750;;;11.760000;56.007812
77517;BME280;68414;53.946;27.634;2023-05-31T03:35:16;99461.828125;;;11.820000;55.512695
77517;BME280;68414;53.946;27.634;2023-05-31T03:36:15;99452.968750;;;11.760000;56.324219
77517;BME280;68414;53.946;27.634;2023-05-31T03:37:16;99451.375000;;;11.750000;56.168945
77517;BME280;68414;53.946;27.634;2023-05-31T03:38:15;99459.171875;;;11.850000;55.811523
77517;BME280;68414;53.946;27.634;2023-05-31T03:39:15;99459.390625;;;11.920000;55.646484
77517;BME280;68414;53.946;27.634;2023-05-31T03:40:17;99462.382812;;;11.870000;55.879883
77517;BME280;68414;53.946;27.634;2023-05-31T03:41:17;99469.984375;;;11.900000;56.134766
77517;BME280;68414;53.946;27.634;2023-05-31T03:42:17;99463.515625;;;11.980000;56.079102
77517;BME280;68414;53.946;27.634;2023-05-31T03:43:15;99462.921875;;;12.050000;55.563477
77517;BME280;68414;53.946;27.634;2023-05-31T03:44:15;99468.546875;;;12.080000;55.524414
77517;BME280;68414;53.946;27.634;2023-05-31T03:45:16;99466.812500;;;12.160000;55.359375
77517;BME280;68414;53.946;27.634;2023-05-31T03:46:15;99467.046875;;;12.110000;55.452148
77517;BME280;68414;53.946;27.634;2023-05-31T03:47:15;99463.828125;;;12.090000;55.503906
77517;BME280;68414;53.946;27.634;2023-05-31T03:48:15;99465.781250;;;12.080000;55.328125
77517;BME280;68414;53.946;27.634;2023-05-31T03:49:15;99459.351562;;;12.040000;55.574219
77517;BME280;68414;53.946;27.634;2023-05-31T03:50:15;99466.265625;;;12.100000;55.451172
77517;BME280;68414;53.946;27.634;2023-05-31T03:51:15;99466.000000;;;12.150000;55.315430
77517;BME280;68414;53.946;27.634;2023-05-31T03:52:15;99462.859375;;;12.290000;55.354492
77517;BME280;68414;53.946;27.634;2023-05-31T03:53:17;99469.046875;;;12.380000;54.764648
77517;BME280;68414;53.946;27.634;2023-05-31T03:54:16;99454.179688;;;12.430000;54.540039
77517;BME280;68414;53.946;27.634;2023-05-31T03:55:15;99455.765625;;;12.440000;54.465820
77517;BME280;68414;53.946;27.634;2023-05-31T03:56:17;99459.101562;;;12.490000;54.746094
77517;BME280;68414;53.946;27.634;2023-05-31T03:57:15;99460.609375;;;12.470000;54.589844
77517;BME280;68414;53.946;27.634;2023-05-31T03:58:17;99454.953125;;;12.430000;54.770508
77517;BME280;68414;53.946;27.634;2023-05-31T03:59:15;99457.484375;;;12.480000;54.275391
77517;BME280;68414;53.946;27.634;2023-05-31T04:00:17;99456.875000;;;12.550000;54.479492
77517;BME280;68414;53.946;27.634;2023-05-31T04:01:15;99461.867188;;;12.490000;54.538086
77517;BME280;68414;53.946;27.634;2023-05-31T04:02:17;99458.781250;;;12.660000;54.374023
77517;BME280;68414;53.946;27.634;2023-05-31T04:03:15;99461.843750;;;12.770000;54.518555
77517;BME280;68414;53.946;27.634;2023-05-31T04:04:15;99461.843750;;;12.770000;54.037109
77517;BME280;68414;53.946;27.634;2023-05-31T04:05:16;99454.882812;;;12.830000;53.814453
77517;BME280;68414;53.946;27.634;2023-05-31T04:06:16;99460.328125;;;12.950000;53.927734
77517;BME280;68414;53.946;27.634;2023-05-31T04:07:18;99457.234375;;;12.970000;53.917969
77517;BME280;68414;53.946;27.634;2023-05-31T04:08:17;99463.375000;;;12.900000;53.658203
77517;BME280;68414;53.946;27.634;2023-05-31T04:09:15;99457.843750;;;12.900000;53.527344
77517;BME280;68414;53.946;27.634;2023-05-31T04:10:18;99463.656250;;;13.010000;53.333008
77517;BME280;68414;53.946;27.634;2023-05-31T04:11:15;99466.203125;;;13.060000;53.765625
77517;BME280;68414;53.946;27.634;2023-05-31T04:12:15;99464.046875;;;13.300000;53.445312
77517;BME280;68414;53.946;27.634;2023-05-31T04:13:15;99459.640625;;;13.600000;53.153320
77517;BME280;68414;53.946;27.634;2023-05-31T04:14:15;99459.421875;;;13.850000;51.789062
77517;BME280;68414;53.946;27.634;2023-05-31T04:15:16;99451.234375;;;14.070000;50.969727
77517;BME280;68414;53.946;27.634;2023-05-31T04:16:16;99452.765625;;;14.050000;50.265625
77517;BME280;68414;53.946;27.634;2023-05-31T04:17:15;99458.304688;;;14.050000;50.506836
77517;BME280;68414;53.946;27.634;2023-05-31T04:18:15;99459.992188;;;14.090000;50.851562
77517;BME280;68414;53.946;27.634;2023-05-31T04:19:15;99460.765625;;;14.100000;50.171875
77517;BME280;68414;53.946;27.634;2023-05-31T04:20:17;99462.117188;;;14.160000;50.188477
77517;BME280;68414;53.946;27.634;2023-05-31T04:21:15;99455.968750;;;14.070000;50.190430
77517;BME280;68414;53.946;27.634;2023-05-31T04:22:15;99468.515625;;;14.010000;50.500977
77517;BME280;68414;53.946;27.634;2023-05-31T04:23:15;99455.968750;;;14.070000;50.431641
77517;BME280;68414;53.946;27.634;2023-05-31T04:24:17;99456.828125;;;13.920000;50.370117
77517;BME280;68414;53.946;27.634;2023-05-31T04:25:16;99460.164062;;;13.820000;50.996094
77517;BME280;68414;53.946;27.634;2023-05-31T04:26:17;99461.687500;;;13.790000;50.937500
77517;BME280;68414;53.946;27.634;2023-05-31T04:27:15;99463.742188;;;13.660000;51.185547
77517;BME280;68414;53.946;27.634;2023-05-31T04:28:15;99459.203125;;;13.580000;51.813477
77517;BME280;68414;53.946;27.634;2023-05-31T04:29:15;99463.843750;;;13.700000;51.136719
77517;BME280;68414;53.946;27.634;2023-05-31T04:30:15;99457.046875;;;13.670000;51.451172
77517;BME280;68414;53.946;27.634;2023-05-31T04:31:15;99454.109375;;;13.600000;51.628906
77517;BME280;68414;53.946;27.634;2023-05-31T04:32:15;99457.046875;;;13.670000;51.176758
77517;BME280;68414;53.946;27.634;2023-05-31T04:33:15;99459.250000;;;13.780000;50.913086
77517;BME280;68414;53.946;27.634;2023-05-31T04:34:17;99458.031250;;;13.750000;51.361328
77517;BME280;68414;53.946;27.634;2023-05-31T04:35:15;99457.765625;;;13.640000;51.709961
77517;BME280;68414;53.946;27.634;2023-05-31T04:36:15;99449.554688;;;13.680000;51.747070
77517;BME280;68414;53.946;27.634;2023-05-31T04:37:15;99454.453125;;;13.750000;51.513672
77517;BME280;68414;53.946;27.634;2023-05-31T04:38:15;99458.914062;;;13.790000;51.683594
77517;BME280;68414;53.946;27.634;2023-05-31T04:39:15;99460.234375;;;13.850000;50.790039
77517;BME280;68414;53.946;27.634;2023-05-31T04:40:15;99458.414062;;;13.930000;50.788086
77517;BME280;68414;53.946;27.634;2023-05-31T04:41:16;99468.781250;;;13.960000;50.791992
77517;BME280;68414;53.946;27.634;2023-05-31T04:42:15;99455.000000;;;13.990000;50.499023
77517;BME280;68414;53.946;27.634;2023-05-31T04:43:17;99450.640625;;;13.980000;51.179688
77517;BME280;68414;53.946;27.634;2023-05-31T04:44:15;99458.671875;;;14.030000;50.559570